Time;durP1;ratioP1;P1;durP2;ratioP2;P2;SDS_P1;SDS_P2;PMS_P1;PMS_P2;Temp;Humidity;BMP_temperature;BMP_pressure;BME280_temperature;BME280_humidity;BME280_pressure;Samples;Min_cycle;Max_cycle;Signal;HPM_P1;HPM_P2
2021/01/07 00:01:22;;;;;;;13.48;8.45;;;;;;;1.51;100.00;100216.25;5244914;28;20029;-79
2021/01/07 00:03:52;;;;;;;13.75;8.55;;;;;;;1.51;100.00;100226.56;5244989;28;20391;-78
2021/01/07 00:06:22;;;;;;;13.80;9.52;;;;;;;1.46;100.00;100224.03;5248168;28;20239;-78
2021/01/07 00:08:53;;;;;;;16.58;9.30;;;;;;;1.44;100.00;100217.16;5245260;28;20132;-77
2021/01/07 00:11:23;;;;;;;13.05;9.27;;;;;;;1.50;100.00;100214.53;5244392;28;20028;-80
2021/01/07 00:13:53;;;;;;;14.65;9.82;;;;;;;1.51;100.00;100217.13;5238687;28;20532;-79
2021/01/07 00:16:24;;;;;;;15.82;9.55;;;;;;;1.45;100.00;100214.59;5223955;28;20044;-80
2021/01/07 00:18:54;;;;;;;15.40;9.68;;;;;;;1.47;100.00;100220.59;5223750;28;20032;-79
2021/01/07 00:21:24;;;;;;;16.70;10.90;;;;;;;1.44;100.00;100215.44;5229463;28;20061;-78
2021/01/07 00:23:55;;;;;;;14.13;9.75;;;;;;;1.47;100.00;100210.28;5242901;28;20020;-79
2021/01/07 00:26:25;;;;;;;16.98;11.45;;;;;;;1.43;100.00;100208.56;5244623;28;20020;-77
2021/01/07 00:28:55;;;;;;;16.27;10.93;;;;;;;1.40;100.00;100203.44;5244515;28;20386;-76
2021/01/07 00:31:26;;;;;;;14.23;10.00;;;;;;;1.34;100.00;100203.47;5244476;28;20121;-77
2021/01/07 00:33:56;;;;;;;15.25;10.68;;;;;;;1.45;100.00;100206.88;5244600;28;20024;-77
2021/01/07 00:36:26;;;;;;;14.73;10.52;;;;;;;1.48;100.00;100205.97;5244520;28;20024;-80
2021/01/07 00:38:57;;;;;;;15.18;10.15;;;;;;;1.50;100.00;100211.97;5246624;28;20016;-82
2021/01/07 00:41:27;;;;;;;15.38;9.98;;;;;;;1.31;100.00;100210.34;5249158;28;20150;-80
2021/01/07 00:43:57;;;;;;;15.55;10.18;;;;;;;1.43;100.00;100207.72;5243937;28;20028;-79
2021/01/07 00:46:27;;;;;;;16.15;11.13;;;;;;;1.48;100.00;100208.56;5244058;28;20071;-80
2021/01/07 00:48:58;;;;;;;14.70;10.20;;;;;;;1.45;100.00;100201.72;5242678;28;20107;-78
2021/01/07 00:51:32;;;;;;;16.30;11.27;;;;;;;1.39;100.00;100201.72;5223661;28;20536;-78
2021/01/07 00:54:03;;;;;;;15.10;11.18;;;;;;;1.42;100.00;100201.72;5223274;28;20021;-79
2021/01/07 00:56:37;;;;;;;14.73;10.45;;;;;;;1.46;100.00;100203.44;5223946;28;20400;-77
2021/01/07 00:59:08;;;;;;;15.65;10.60;;;;;;;1.37;100.00;100195.75;5223291;28;20033;-78
2021/01/07 01:01:42;;;;;;;15.18;10.95;;;;;;;1.27;100.00;100200.94;5223311;28;20040;-77
2021/01/07 01:04:13;;;;;;;15.40;10.67;;;;;;;1.38;100.00;100197.44;5223417;28;20032;-77
2021/01/07 01:06:44;;;;;;;14.35;9.90;;;;;;;1.39;100.00;100195.75;5223339;28;20025;-80
2021/01/07 01:09:14;;;;;;;14.80;10.68;;;;;;;1.44;100.00;100201.72;5243973;28;20034;-77
2021/01/07 01:11:47;;;;;;;13.95;10.50;;;;;;;1.42;100.00;100194.00;5245980;28;20036;-78
2021/01/07 01:14:19;;;;;;;14.93;9.95;;;;;;;1.33;100.00;100194.06;5243668;28;20028;-80
2021/01/07 01:16:50;;;;;;;14.18;10.15;;;;;;;1.40;100.00;100200.88;5244250;28;20020;-82
2021/01/07 01:19:21;;;;;;;14.98;10.20;;;;;;;1.34;100.00;100190.63;5243806;28;20101;-77
2021/01/07 01:21:52;;;;;;;14.55;10.43;;;;;;;1.54;100.00;100195.66;5247323;28;20309;-77
2021/01/07 01:24:22;;;;;;;13.73;9.48;;;;;;;1.38;100.00;100194.88;5237232;28;20024;-83
2021/01/07 01:26:59;;;;;;;12.60;9.30;;;;;;;1.47;100.00;100197.41;5241130;28;20044;-80
2021/01/07 01:29:30;;;;;;;14.13;10.00;;;;;;;1.47;100.00;100200.00;5246047;28;20067;-80
2021/01/07 01:32:01;;;;;;;13.68;9.75;;;;;;;1.38;100.00;100199.19;5243044;28;20048;-81
2021/01/07 01:34:31;;;;;;;13.55;9.32;;;;;;;1.49;100.00;100203.41;5243233;28;20024;-77
2021/01/07 01:37:07;;;;;;;15.27;9.50;;;;;;;1.51;100.00;100206.81;5243036;28;20031;-78
2021/01/07 01:39:37;;;;;;;13.52;9.70;;;;;;;1.35;100.00;100200.03;5249369;28;20027;-81
2021/01/07 01:42:08;;;;;;;14.10;10.10;;;;;;;1.33;100.00;100199.19;5242970;28;20508;-81
2021/01/07 01:44:38;;;;;;;13.32;9.55;;;;;;;1.39;100.00;100195.75;5243117;28;20025;-79
2021/01/07 01:47:08;;;;;;;12.50;9.32;;;;;;;1.40;100.00;100197.47;5243181;28;20025;-82
2021/01/07 01:49:38;;;;;;;12.43;8.98;;;;;;;1.42;100.00;100196.56;5222048;28;20032;-77
2021/01/07 01:52:09;;;;;;;13.45;9.02;;;;;;;1.38;100.00;100194.88;5234796;28;20386;-78
2021/01/07 01:54:39;;;;;;;13.27;9.43;;;;;;;1.42;100.00;100200.88;5242485;28;20024;-79
2021/01/07 01:57:14;;;;;;;12.15;8.80;;;;;;;1.26;100.00;100199.22;5243428;28;20044;-77
2021/01/07 01:59:45;;;;;;;12.40;9.07;;;;;;;1.42;100.00;100196.56;5242922;28;20039;-77
2021/01/07 02:02:18;;;;;;;11.30;8.45;;;;;;;1.23;100.00;100200.09;5243224;28;20482;-80
2021/01/07 02:04:49;;;;;;;11.30;8.20;;;;;;;1.33;100.00;100204.34;5242602;28;20103;-79
2021/01/07 02:07:24;;;;;;;11.75;8.25;;;;;;;1.22;100.00;100207.84;5242644;28;20115;-78
2021/01/07 02:09:56;;;;;;;10.95;7.85;;;;;;;1.35;100.00;100204.31;5249109;28;20017;-80
2021/01/07 02:12:27;;;;;;;11.18;8.00;;;;;;;1.44;100.00;100204.28;5241375;28;20069;-78
2021/01/07 02:14:57;;;;;;;11.23;7.38;;;;;;;1.44;100.00;100196.56;5242904;28;20036;-79
2021/01/07 02:17:28;;;;;;;10.82;7.47;;;;;;;1.50;100.00;100199.09;5242553;28;20028;-82
2021/01/07 02:19:58;;;;;;;10.93;7.60;;;;;;;1.54;100.00;100199.09;5242883;28;20021;-81
2021/01/07 02:22:29;;;;;;;10.45;7.18;;;;;;;1.46;100.00;100200.84;5246767;28;20024;-77
2021/01/07 02:24:59;;;;;;;9.30;6.75;;;;;;;1.45;100.00;100200.84;5242710;28;20035;-79
2021/01/07 02:27:29;;;;;;;8.68;6.22;;;;;;;1.50;100.00;100205.13;5243307;28;20024;-80
2021/01/07 02:29:59;;;;;;;10.50;6.60;;;;;;;1.50;100.00;100202.53;5242522;28;20032;-77
2021/01/07 02:32:30;;;;;;;9.82;6.95;;;;;;;1.51;100.00;100200.81;5243102;28;20032;-77
2021/01/07 02:35:00;;;;;;;11.05;7.03;;;;;;;1.59;100.00;100199.06;5242848;28;20081;-78
2021/01/07 02:37:30;;;;;;;9.57;6.55;;;;;;;1.46;100.00;100203.44;5242883;28;20098;-77
2021/01/07 02:40:01;;;;;;;9.15;6.60;;;;;;;1.49;100.00;100197.38;5250581;28;20024;-80
2021/01/07 02:42:32;;;;;;;9.57;7.00;;;;;;;1.49;100.00;100197.38;5244714;28;20052;-77
2021/01/07 02:45:05;;;;;;;9.45;6.93;;;;;;;1.47;100.00;100200.00;5232895;28;20025;-78
2021/01/07 02:47:38;;;;;;;8.95;6.38;;;;;;;1.50;100.00;100197.41;5232437;28;20550;-79
2021/01/07 02:50:09;;;;;;;10.25;7.18;;;;;;;1.44;100.00;100199.97;5246344;28;20028;-77
2021/01/07 02:52:40;;;;;;;9.13;6.57;;;;;;;1.51;100.00;100193.94;5244002;28;20033;-80
2021/01/07 02:55:11;;;;;;;11.02;7.70;;;;;;;1.53;100.00;100201.66;5246067;28;20533;-78
2021/01/07 02:57:41;;;;;;;10.15;7.00;;;;;;;1.41;100.00;100189.72;5246370;28;20082;-78
2021/01/07 03:00:12;;;;;;;10.52;7.28;;;;;;;1.36;100.00;100188.00;5225698;28;20098;-79
2021/01/07 03:02:42;;;;;;;10.27;7.15;;;;;;;1.32;100.00;100188.91;5225796;28;20025;-77
2021/01/07 03:05:12;;;;;;;9.85;7.00;;;;;;;1.44;100.00;100179.38;5225545;28;20029;-76
2021/01/07 03:07:43;;;;;;;10.02;7.20;;;;;;;1.43;100.00;100182.81;5227777;28;20025;-77
2021/01/07 03:10:13;;;;;;;10.35;7.28;;;;;;;1.50;100.00;100179.38;5252301;28;20490;-76
2021/01/07 03:12:44;;;;;;;10.18;7.15;;;;;;;1.51;100.00;100183.66;5246022;28;20028;-83
2021/01/07 03:15:14;;;;;;;9.60;6.72;;;;;;;1.38;100.00;100176.03;5237267;28;20036;-82
2021/01/07 03:17:45;;;;;;;10.02;7.28;;;;;;;1.44;100.00;100173.41;5225461;28;20111;-80
2021/01/07 03:20:15;;;;;;;11.18;7.65;;;;;;;1.37;100.00;100176.88;5228570;28;20035;-77
2021/01/07 03:22:46;;;;;;;9.38;7.00;;;;;;;1.49;100.00;100167.38;5238368;28;20101;-77
2021/01/07 03:25:17;;;;;;;9.82;7.50;;;;;;;1.43;100.00;100167.38;5244612;28;20531;-78
2021/01/07 03:27:47;;;;;;;10.32;7.60;;;;;;;1.44;100.00;100169.09;5245518;28;20038;-79
2021/01/07 03:30:18;;;;;;;11.07;8.10;;;;;;;1.57;100.00;100169.91;5245854;28;20116;-77
2021/01/07 03:32:48;;;;;;;11.43;8.20;;;;;;;1.52;100.00;100177.66;5245820;28;20024;-78
2021/01/07 03:35:18;;;;;;;10.23;7.22;;;;;;;1.42;100.00;100165.69;5245860;28;20021;-80
2021/01/07 03:37:49;;;;;;;10.40;7.72;;;;;;;1.38;100.00;100174.28;5231590;28;20028;-77
2021/01/07 03:40:19;;;;;;;10.75;8.10;;;;;;;1.49;100.00;100171.66;5243036;28;20082;-76
2021/01/07 03:42:49;;;;;;;13.10;8.10;;;;;;;1.49;100.00;100167.38;5234737;28;20576;-77
2021/01/07 03:45:20;;;;;;;10.73;7.60;;;;;;;1.46;100.00;100162.25;5245516;28;20028;-76
2021/01/07 03:47:50;;;;;;;10.45;7.68;;;;;;;1.35;100.00;100173.44;5240901;28;20533;-77
2021/01/07 03:50:21;;;;;;;10.15;7.60;;;;;;;1.43;100.00;100164.81;5227554;28;20111;-80
2021/01/07 03:52:51;;;;;;;10.15;7.28;;;;;;;1.44;100.00;100169.09;5242811;28;20036;-78
2021/01/07 03:55:21;;;;;;;9.57;7.15;;;;;;;1.47;100.00;100174.25;5244877;28;20108;-82
2021/01/07 03:57:51;;;;;;;9.25;7.07;;;;;;;1.55;100.00;100169.91;5245119;28;20020;-78
2021/01/07 04:00:22;;;;;;;10.68;6.95;;;;;;;1.47;100.00;100176.81;5245494;28;20027;-77
2021/01/07 04:02:52;;;;;;;10.55;6.93;;;;;;;1.56;100.00;100176.75;5245648;28;20024;-77
2021/01/07 04:05:22;;;;;;;10.13;6.72;;;;;;;1.44;100.00;100171.66;5243811;28;20028;-77
2021/01/07 04:07:53;;;;;;;8.65;6.35;;;;;;;1.58;100.00;100172.44;5238792;28;20510;-79
2021/01/07 04:10:23;;;;;;;8.32;6.20;;;;;;;1.58;100.00;100167.28;5245088;28;20394;-77
2021/01/07 04:12:53;;;;;;;11.23;6.93;;;;;;;1.56;100.00;100169.03;5244640;28;20125;-79
2021/01/07 04:15:23;;;;;;;9.35;6.47;;;;;;;1.49;100.00;100167.38;5244681;28;20036;-77
2021/01/07 04:17:54;;;;;;;11.02;7.40;;;;;;;1.35;100.00;100166.59;5245125;28;20045;-77
2021/01/07 04:20:24;;;;;;;11.52;7.25;;;;;;;1.36;100.00;100170.00;5244375;28;20028;-80
2021/01/07 04:22:54;;;;;;;9.07;6.50;;;;;;;1.47;100.00;100160.50;5244016;28;20027;-78
2021/01/07 04:25:24;;;;;;;9.82;6.82;;;;;;;1.40;100.00;100164.00;5244362;28;20161;-77
2021/01/07 04:27:55;;;;;;;9.95;6.90;;;;;;;1.32;100.00;100169.19;5244474;28;20073;-78
2021/01/07 04:30:25;;;;;;;9.15;6.38;;;;;;;1.43;100.00;100169.13;5244314;28;20390;-77
2021/01/07 04:32:55;;;;;;;9.15;6.50;;;;;;;1.46;100.00;100161.38;5243224;28;20020;-77
2021/01/07 04:35:26;;;;;;;10.85;6.50;;;;;;;1.48;100.00;100160.50;5250017;28;20173;-78
2021/01/07 04:37:56;;;;;;;10.30;6.97;;;;;;;1.44;100.00;100158.78;5252518;28;20026;-80
2021/01/07 04:40:26;;;;;;;10.48;6.97;;;;;;;1.46;100.00;100154.53;5250871;28;20131;-78
2021/01/07 04:42:58;;;;;;;10.38;6.80;;;;;;;1.49;100.00;100156.19;5243378;28;20033;-80
2021/01/07 04:45:29;;;;;;;11.45;6.53;;;;;;;1.46;100.00;100154.53;5243669;28;20033;-77
2021/01/07 04:48:00;;;;;;;10.35;6.50;;;;;;;1.43;100.00;100156.25;5243673;28;20012;-79
2021/01/07 04:50:30;;;;;;;9.18;6.05;;;;;;;1.37;100.00;100154.56;5244414;28;20111;-77
2021/01/07 04:53:01;;;;;;;8.90;6.10;;;;;;;1.39;100.00;100152.81;5244133;28;20119;-77
2021/01/07 04:55:31;;;;;;;9.55;6.32;;;;;;;1.35;100.00;100155.41;5244121;28;20032;-82
2021/01/07 04:58:02;;;;;;;9.65;6.45;;;;;;;1.47;100.00;100152.78;5241847;28;20097;-81
2021/01/07 05:00:33;;;;;;;10.23;6.50;;;;;;;1.36;100.00;100151.97;5243210;28;20394;-80
2021/01/07 05:03:04;;;;;;;10.38;6.47;;;;;;;1.26;100.00;100151.19;5242462;28;20089;-76
2021/01/07 05:05:34;;;;;;;9.40;6.63;;;;;;;1.38;100.00;100148.53;5243757;28;20432;-79
2021/01/07 05:08:05;;;;;;;11.02;6.82;;;;;;;1.33;100.00;100152.00;5243449;28;20024;-79
2021/01/07 05:10:35;;;;;;;11.35;6.80;;;;;;;1.22;100.00;100146.09;5242822;28;20031;-77
2021/01/07 05:13:08;;;;;;;9.88;7.07;;;;;;;1.29;100.00;100147.75;5243288;28;20032;-76
2021/01/07 05:15:39;;;;;;;10.82;6.57;;;;;;;1.25;100.00;100157.19;5243913;28;20024;-82
2021/01/07 05:18:10;;;;;;;9.82;6.60;;;;;;;1.30;100.00;100158.03;5243810;28;20469;-77
2021/01/07 05:20:41;;;;;;;11.15;7.35;;;;;;;1.32;100.00;100161.47;5242976;28;20118;-79
2021/01/07 05:23:11;;;;;;;11.38;7.10;;;;;;;1.22;100.00;100157.22;5243386;28;20368;-84
2021/01/07 05:25:42;;;;;;;10.45;7.47;;;;;;;1.28;100.00;100157.19;5243767;28;20035;-80
2021/01/07 05:28:12;;;;;;;10.05;6.85;;;;;;;1.29;100.00;100158.91;5243272;28;20051;-80
2021/01/07 05:30:43;;;;;;;12.13;7.65;;;;;;;1.26;100.00;100153.75;5243447;28;20052;-80
2021/01/07 05:33:13;;;;;;;10.05;7.43;;;;;;;1.34;100.00;100152.00;5238581;28;20904;-79
2021/01/07 05:35:43;;;;;;;11.38;7.18;;;;;;;1.34;100.00;100157.16;5243725;28;20035;-77
2021/01/07 05:38:13;;;;;;;11.00;7.88;;;;;;;1.37;100.00;100152.00;5243307;28;20020;-77
2021/01/07 05:40:49;;;;;;;11.38;7.78;;;;;;;1.31;100.00;100158.88;5243228;28;20508;-77
2021/01/07 05:43:19;;;;;;;;;;;;;;;1.23;100.00;100164.06;5243723;28;20498;-77
2021/01/07 05:45:55;;;;;;;12.38;8.02;;;;;;;1.19;100.00;100162.38;5243398;28;19997;-79
2021/01/07 05:48:30;;;;;;;11.18;7.93;;;;;;;1.20;100.00;100163.25;5242874;28;20031;-79
2021/01/07 05:51:04;;;;;;;11.75;7.85;;;;;;;1.31;100.00;100164.91;5243147;28;20032;-77
2021/01/07 05:53:34;;;;;;;12.10;8.27;;;;;;;1.25;100.00;100157.19;5243119;28;20033;-77
2021/01/07 05:56:06;;;;;;;13.75;8.35;;;;;;;1.26;100.00;100150.34;5244150;28;20039;-77
2021/01/07 05:58:37;;;;;;;11.45;7.90;;;;;;;1.28;100.00;100156.34;5242701;28;20032;-77
2021/01/07 06:01:07;;;;;;;11.68;7.55;;;;;;;1.19;100.00;100167.53;5242760;28;20521;-77
2021/01/07 06:03:44;;;;;;;11.35;7.68;;;;;;;1.28;100.00;100167.50;5242781;28;20443;-78
2021/01/07 06:06:19;;;;;;;12.68;8.25;;;;;;;1.28;100.00;100156.34;5243216;28;20024;-77
2021/01/07 06:08:53;;;;;;;;;;;;;;;1.22;100.00;100159.78;5243217;28;20021;-77
2021/01/07 06:11:25;;;;;;;11.05;7.47;;;;;;;1.21;100.00;100160.66;5242850;28;19999;-78
2021/01/07 06:13:56;;;;;;;11.30;7.18;;;;;;;1.13;100.00;100162.41;5242765;28;20035;-78
2021/01/07 06:16:27;;;;;;;11.55;6.82;;;;;;;1.33;100.00;100165.75;5247032;28;20033;-80
2021/01/07 06:19:28;;;;;;;9.57;6.80;;;;;;;1.30;100.00;100167.47;5246860;28;20226;-81
2021/01/07 06:22:00;;;;;;;10.15;6.95;;;;;;;1.42;100.00;100170.00;5237533;28;20028;-77
2021/01/07 06:24:30;;;;;;;11.80;7.00;;;;;;;1.34;100.00;100167.44;5250162;28;20059;-79
2021/01/07 06:27:20;;;;;;;10.90;7.30;;;;;;;1.30;100.00;100170.91;5241560;28;20053;-77
2021/01/07 06:30:20;;;;;;;9.30;6.57;;;;;;;1.19;100.00;100171.81;5240308;28;20028;-79
2021/01/07 06:33:04;;;;;;;9.52;6.70;;;;;;;1.30;100.00;100178.63;5244167;28;20043;-79
2021/01/07 06:35:38;;;;;;;9.95;6.65;;;;;;;1.44;100.00;100169.09;5241984;28;20094;-77
2021/01/07 06:38:13;;;;;;;11.15;7.00;;;;;;;1.35;100.00;100171.72;5245567;28;20020;-79
2021/01/07 06:40:44;;;;;;;10.10;6.78;;;;;;;1.34;100.00;100170.03;5245359;28;20029;-77
2021/01/07 06:43:18;;;;;;;10.32;7.10;;;;;;;1.24;100.00;100175.22;5245417;28;20423;-80
2021/01/07 06:45:53;;;;;;;9.80;6.57;;;;;;;1.26;100.00;100174.34;5232681;28;20633;-77
2021/01/07 06:48:34;;;;;;;8.52;6.38;;;;;;;1.29;100.00;100174.34;5234349;28;20537;-78
2021/01/07 06:51:06;;;;;;;10.48;6.88;;;;;;;1.22;100.00;100176.97;5242561;28;20089;-78
2021/01/07 06:53:37;;;;;;;10.85;6.88;;;;;;;1.19;100.00;100171.81;5242473;28;20025;-77
2021/01/07 06:56:14;;;;;;;10.18;7.05;;;;;;;1.15;100.00;100189.00;5245351;28;20024;-80
2021/01/07 06:58:46;;;;;;;10.90;6.70;;;;;;;1.18;100.00;100186.41;5245510;28;20147;-77
2021/01/07 07:01:18;;;;;;;9.52;6.47;;;;;;;1.36;100.00;100190.59;5245973;28;20020;-79
2021/01/07 07:03:53;;;;;;;10.07;7.10;;;;;;;1.34;100.00;100179.44;5245087;28;20078;-81
2021/01/07 07:06:26;;;;;;;12.00;7.28;;;;;;;1.18;100.00;100181.25;5245554;28;20205;-77
2021/01/07 07:08:56;;;;;;;10.10;7.00;;;;;;;1.22;100.00;100187.25;5244947;28;20047;-81
2021/01/07 07:11:32;;;;;;;9.75;6.53;;;;;;;1.28;100.00;100192.34;5245207;28;20490;-79
2021/01/07 07:14:04;;;;;;;;;;;;;;;1.24;100.00;100195.81;5245627;28;20044;-80
2021/01/07 07:16:36;;;;;;;11.05;6.60;;;;;;;1.28;100.00;100190.66;5245342;28;19919;-80
2021/01/07 07:19:07;;;;;;;8.88;6.65;;;;;;;1.37;100.00;100189.75;5245569;28;20016;-79
2021/01/07 07:21:52;;;;;;;11.02;6.82;;;;;;;1.37;100.00;100188.03;5257767;28;20114;-77
2021/01/07 07:24:36;;;;;;;9.48;6.72;;;;;;;1.27;100.00;100191.50;5245044;28;20055;-79
2021/01/07 07:27:11;;;;;;;9.52;6.78;;;;;;;1.50;100.00;100191.38;5243445;28;20143;-78
2021/01/07 07:29:45;;;;;;;9.63;6.60;;;;;;;1.37;100.00;100203.47;5244588;28;20025;-77
2021/01/07 07:32:25;;;;;;;9.88;6.28;;;;;;;1.46;100.00;100198.28;5245171;28;20035;-79
2021/01/07 07:34:55;;;;;;;13.43;7.18;;;;;;;1.36;100.00;100204.31;5239813;28;20496;-77
2021/01/07 07:37:26;;;;;;;11.25;7.30;;;;;;;1.35;100.00;100207.75;5245292;28;20032;-77
2021/01/07 07:40:00;;;;;;;11.02;7.80;;;;;;;1.25;100.00;100200.09;5251473;28;20024;-81
2021/01/07 07:42:31;;;;;;;10.85;7.45;;;;;;;1.13;100.00;100208.72;5244961;28;20020;-78
2021/01/07 07:45:01;;;;;;;10.02;6.80;;;;;;;1.33;100.00;100212.06;5244352;28;20031;-80
2021/01/07 07:47:32;;;;;;;10.85;7.28;;;;;;;1.25;100.00;100211.22;5244396;28;20032;-78
2021/01/07 07:50:02;;;;;;;10.27;6.68;;;;;;;1.29;100.00;100209.50;5244788;28;20032;-77
2021/01/07 07:52:33;;;;;;;10.80;7.10;;;;;;;1.38;100.00;100209.47;5242217;28;20058;-80
2021/01/07 07:55:04;;;;;;;11.98;6.43;;;;;;;1.44;100.00;100210.28;5246728;28;20074;-80
2021/01/07 07:57:48;;;;;;;10.85;6.35;;;;;;;1.29;100.00;100219.81;5244686;28;20033;-79
2021/01/07 08:00:18;;;;;;;10.07;6.65;;;;;;;1.47;100.00;100219.72;5243783;28;20194;-80
2021/01/07 08:02:50;;;;;;;11.45;7.18;;;;;;;1.53;100.00;100224.81;5244292;28;20103;-77
2021/01/07 08:05:29;;;;;;;12.23;8.00;;;;;;;1.44;100.00;100230.88;5244180;28;20120;-78
2021/01/07 08:07:59;;;;;;;10.20;6.63;;;;;;;1.52;100.00;100221.41;5243958;28;20499;-77
2021/01/07 08:10:30;;;;;;;11.43;6.97;;;;;;;1.45;100.00;100217.16;5250769;28;20036;-76
2021/01/07 08:13:00;;;;;;;11.65;6.95;;;;;;;1.59;100.00;100228.22;5243530;28;20020;-79
2021/01/07 08:15:32;;;;;;;10.00;6.75;;;;;;;1.51;100.00;100226.56;5243936;28;20028;-78
2021/01/07 08:18:25;;;;;;;8.98;6.10;;;;;;;1.62;100.00;100225.66;5242513;28;20025;-79
2021/01/07 08:21:07;;;;;;;9.23;6.05;;;;;;;1.55;100.00;100229.13;5242456;28;20666;-77
2021/01/07 08:23:37;;;;;;;9.68;6.40;;;;;;;1.51;100.00;100224.84;5239846;28;20503;-80
2021/01/07 08:26:15;;;;;;;10.65;6.93;;;;;;;1.69;100.00;100226.44;5244153;28;20031;-80
2021/01/07 08:28:45;;;;;;;8.57;6.13;;;;;;;1.55;100.00;100225.69;5243126;28;20428;-77
2021/01/07 08:31:24;;;;;;;9.93;6.15;;;;;;;1.61;100.00;100223.91;5244011;28;20020;-79
2021/01/07 08:33:55;;;;;;;9.23;6.15;;;;;;;1.69;100.00;100226.44;5242980;28;20031;-79
2021/01/07 08:36:30;;;;;;;10.38;6.25;;;;;;;1.65;100.00;100222.19;5243824;28;20421;-79
2021/01/07 08:39:00;;;;;;;9.97;6.60;;;;;;;1.65;100.00;100224.75;5242662;28;20027;-77
2021/01/07 08:41:31;;;;;;;9.95;6.35;;;;;;;1.66;100.00;100222.19;5243481;28;20487;-80
2021/01/07 08:44:07;;;;;;;11.40;6.32;;;;;;;1.74;100.00;100225.56;5242972;28;20024;-78
2021/01/07 08:46:42;;;;;;;10.63;6.68;;;;;;;1.66;100.00;100219.63;5243763;28;20411;-79
2021/01/07 08:49:18;;;;;;;13.27;6.97;;;;;;;1.58;100.00;100218.78;5238465;28;20032;-79
2021/01/07 08:51:52;;;;;;;9.40;6.30;;;;;;;1.67;100.00;100213.59;5242046;28;20029;-77
2021/01/07 08:54:24;;;;;;;9.32;6.18;;;;;;;1.68;100.00;100215.31;5242995;28;20050;-78
2021/01/07 08:56:56;;;;;;;9.73;6.15;;;;;;;1.67;100.00;100223.91;5243645;28;20032;-79
2021/01/07 08:59:30;;;;;;;10.18;6.10;;;;;;;1.72;100.00;100217.00;5242604;28;20028;-80
2021/01/07 09:02:06;;;;;;;10.18;6.95;;;;;;;1.81;100.00;100215.22;5243411;28;20479;-79
2021/01/07 09:04:41;;;;;;;9.63;6.10;;;;;;;1.94;100.00;100205.69;5242627;28;20033;-78
2021/01/07 09:07:14;;;;;;;9.20;6.25;;;;;;;1.97;100.00;100208.25;5243464;28;20028;-78
2021/01/07 09:09:51;;;;;;;10.07;6.60;;;;;;;2.11;100.00;100211.56;5246950;28;20533;-80
2021/01/07 09:12:32;;;;;;;10.35;6.10;;;;;;;1.97;100.00;100214.25;5243149;28;20150;-76
2021/01/07 09:15:07;;;;;;;9.73;6.28;;;;;;;2.19;100.00;100212.38;5242892;28;20685;-78
2021/01/07 09:17:48;;;;;;;;;;;;;;;2.16;100.00;100217.56;5243372;28;20448;-77
2021/01/07 09:20:20;;;;;;;9.02;6.00;;;;;;;2.16;100.00;100220.13;5242963;28;20572;-78
2021/01/07 09:23:08;;;;;;;9.15;5.93;;;;;;;2.17;100.00;100214.94;5247423;28;20020;-77
2021/01/07 09:25:38;;;;;;;11.23;6.32;;;;;;;2.29;100.00;100221.72;5242621;28;20017;-77
2021/01/07 09:28:09;;;;;;;8.48;5.68;;;;;;;2.34;100.00;100228.56;5242822;28;20024;-80
2021/01/07 09:30:39;;;;;;;7.70;5.60;;;;;;;2.33;100.00;100223.44;5242530;28;20058;-77
2021/01/07 09:33:10;;;;;;;8.13;5.68;;;;;;;2.28;100.00;100215.72;5242348;28;20107;-77
2021/01/07 09:35:40;;;;;;;7.88;5.47;;;;;;;2.33;100.00;100228.59;5241893;28;20113;-79
2021/01/07 09:38:10;;;;;;;8.38;5.43;;;;;;;2.38;100.00;100227.69;5239467;28;20020;-79
2021/01/07 09:40:40;;;;;;;9.30;5.97;;;;;;;2.38;100.00;100226.81;5230991;28;20021;-80
2021/01/07 09:43:11;;;;;;;7.82;5.30;;;;;;;2.52;100.00;100223.25;5236262;28;20499;-79
2021/01/07 09:45:41;;;;;;;7.22;5.47;;;;;;;2.50;100.00;100221.56;5232575;28;20508;-79
2021/01/07 09:48:11;;;;;;;9.27;6.20;;;;;;;2.37;100.00;100217.38;5223831;28;20036;-81
2021/01/07 09:50:41;;;;;;;8.63;5.80;;;;;;;2.60;100.00;100213.72;5231313;28;20090;-80
2021/01/07 09:53:12;;;;;;;8.57;6.15;;;;;;;2.62;100.00;100219.72;5248433;28;20033;-80
2021/01/07 09:55:42;;;;;;;9.50;6.10;;;;;;;2.64;100.00;100210.25;5246635;28;20028;-78
2021/01/07 09:58:12;;;;;;;12.13;6.78;;;;;;;2.49;100.00;100219.84;5244215;28;20392;-77
2021/01/07 10:00:42;;;;;;;10.73;7.57;;;;;;;2.45;100.00;100218.16;5244899;28;20040;-76
2021/01/07 10:03:13;;;;;;;8.80;6.10;;;;;;;2.61;100.00;100214.56;5246309;28;20158;-78
2021/01/07 10:05:43;;;;;;;8.38;5.10;;;;;;;2.52;100.00;100214.66;5246578;28;20024;-78
2021/01/07 10:08:13;;;;;;;9.27;5.43;;;;;;;2.48;100.00;100218.16;5244792;28;20024;-80
2021/01/07 10:10:43;;;;;;;9.02;5.60;;;;;;;2.44;100.00;100212.16;5244527;28;20021;-79
2021/01/07 10:13:14;;;;;;;10.93;7.65;;;;;;;2.53;100.00;100211.22;5246015;28;20036;-81
2021/01/07 10:15:44;;;;;;;10.38;6.43;;;;;;;2.44;100.00;100213.88;5245454;28;20668;-81
2021/01/07 10:18:14;;;;;;;11.45;6.93;;;;;;;2.66;100.00;100207.66;5245702;28;20085;-80
2021/01/07 10:20:44;;;;;;;7.30;5.63;;;;;;;2.51;100.00;100208.63;5244271;28;20029;-79
2021/01/07 10:23:17;;;;;;;10.85;7.13;;;;;;;2.51;100.00;100211.22;5245957;28;20059;-78
2021/01/07 10:25:50;;;;;;;8.63;6.05;;;;;;;2.55;100.00;100202.59;5244590;28;20028;-78
2021/01/07 10:28:21;;;;;;;8.98;5.82;;;;;;;2.58;100.00;100201.69;5246175;28;20124;-81
2021/01/07 10:30:51;;;;;;;10.18;6.43;;;;;;;2.68;100.00;100203.34;5245066;28;20112;-78
2021/01/07 10:33:22;;;;;;;9.00;6.57;;;;;;;2.61;100.00;100204.25;5246844;28;20771;-78
2021/01/07 10:35:53;;;;;;;9.77;6.18;;;;;;;2.80;100.00;100201.47;5245898;28;20035;-79
2021/01/07 10:38:24;;;;;;;7.65;5.40;;;;;;;2.87;100.00;100199.69;5245238;28;20079;-80
2021/01/07 10:40:54;;;;;;;8.57;5.53;;;;;;;3.11;100.00;100207.16;5245362;28;20024;-77
2021/01/07 10:43:25;;;;;;;8.18;5.50;;;;;;;2.87;100.00;100208.28;5245575;28;20020;-79
2021/01/07 10:45:55;;;;;;;7.80;5.45;;;;;;;3.06;100.00;100198.59;5245438;28;20035;-79
2021/01/07 10:48:25;;;;;;;7.82;4.90;;;;;;;2.99;100.00;100194.41;5245788;28;20044;-80
2021/01/07 10:50:58;;;;;;;7.75;5.13;;;;;;;2.96;100.00;100199.56;5243598;28;20052;-79
2021/01/07 10:54:01;;;;;;;7.05;4.85;;;;;;;2.75;100.00;100197.22;5245994;28;20035;-78
2021/01/07 10:56:50;;;;;;;5.72;4.20;;;;;;;2.95;100.00;100195.28;5241252;28;20041;-77
2021/01/07 10:59:36;;;;;;;6.65;4.70;;;;;;;2.90;100.00;100197.06;5244431;28;20078;-80
2021/01/07 11:02:23;;;;;;;6.43;4.75;;;;;;;2.78;100.00;100186.88;5245142;28;20531;-81
2021/01/07 11:05:08;;;;;;;6.57;4.70;;;;;;;2.79;100.00;100184.28;5244581;28;20063;-78
2021/01/07 11:07:44;;;;;;;7.07;4.70;;;;;;;2.63;100.00;100181.88;5228854;28;20033;-81
2021/01/07 11:10:15;;;;;;;6.25;4.65;;;;;;;2.77;100.00;100182.59;5245233;28;20555;-77
2021/01/07 11:12:58;;;;;;;9.63;4.80;;;;;;;2.86;100.00;100191.09;5245055;28;20021;-77
2021/01/07 11:15:29;;;;;;;9.20;5.10;;;;;;;2.83;100.00;100182.53;5244626;28;20042;-80
2021/01/07 11:18:30;;;;;;;5.90;4.50;;;;;;;2.72;100.00;100174.88;5227029;28;20487;-79
2021/01/07 11:21:04;;;;;;;9.43;5.25;;;;;;;2.79;100.00;100178.25;5226174;28;20040;-77
2021/01/07 11:23:34;;;;;;;9.05;5.50;;;;;;;2.66;100.00;100177.53;5244651;28;20436;-80
2021/01/07 11:26:05;;;;;;;7.28;5.22;;;;;;;2.71;100.00;100170.59;5243278;28;20028;-80
2021/01/07 11:28:36;;;;;;;7.85;5.88;;;;;;;2.91;100.00;100172.97;5245120;28;20162;-78
2021/01/07 11:31:06;;;;;;;8.02;5.90;;;;;;;2.74;100.00;100170.59;5245106;28;20024;-76
2021/01/07 11:33:38;;;;;;;8.02;6.15;;;;;;;2.72;100.00;100168.91;5245071;28;20111;-76
2021/01/07 11:36:16;;;;;;;7.75;5.78;;;;;;;2.59;100.00;100164.72;5245324;28;20036;-80
2021/01/07 11:38:58;;;;;;;8.90;6.43;;;;;;;2.59;100.00;100170.75;5244937;28;20024;-78
2021/01/07 11:41:43;;;;;;;8.98;6.18;;;;;;;2.71;100.00;100165.44;5239824;28;20448;-77
2021/01/07 11:44:30;;;;;;;9.45;6.25;;;;;;;2.74;100.00;100162.84;5223857;28;20036;-77
2021/01/07 11:47:07;;;;;;;10.18;6.22;;;;;;;2.56;100.00;100160.47;5224113;28;20111;-77